sensor_id;sensor_type;location;lat;lon;timestamp;pressure;altitude;pressure_sealevel;temperature;humidity
55456;BME280;63021;52.836;6.376;2023-08-07T00:00:51;101063.41;;;15.34;79.03
55456;BME280;63021;52.836;6.376;2023-08-07T00:03:17;101059.91;;;15.33;79.24
55456;BME280;63021;52.836;6.376;2023-08-07T00:05:47;101045.16;;;15.29;78.84
55456;BME280;63021;52.836;6.376;2023-08-07T00:08:13;101059.91;;;15.33;79.01
55456;BME280;63021;52.836;6.376;2023-08-07T00:10:38;101052.69;;;15.34;78.45
55456;BME280;63021;52.836;6.376;2023-08-07T00:13:04;101057.03;;;15.35;79.29
55456;BME280;63021;52.836;6.376;2023-08-07T00:15:30;101056.03;;;15.36;79.33
55456;BME280;63021;52.836;6.376;2023-08-07T00:17:56;101064.91;;;15.36;78.78
55456;BME280;63021;52.836;6.376;2023-08-07T00:20:21;101059.53;;;15.36;78.89
55456;BME280;63021;52.836;6.376;2023-08-07T00:22:47;101049.81;;;15.35;79.11
55456;BME280;63021;52.836;6.376;2023-08-07T00:25:12;101049.47;;;15.38;79.25
55456;BME280;63021;52.836;6.376;2023-08-07T00:27:38;101045.78;;;15.39;79.09
55456;BME280;63021;52.836;6.376;2023-08-07T00:30:03;101042.91;;;15.41;78.99
55456;BME280;63021;52.836;6.376;2023-08-07T00:32:29;101052.47;;;15.44;79.13
55456;BME280;63021;52.836;6.376;2023-08-07T00:34:54;101056.84;;;15.45;78.83
55456;BME280;63021;52.836;6.376;2023-08-07T00:37:20;101057.00;;;15.43;78.92
55456;BME280;63021;52.836;6.376;2023-08-07T00:39:45;101053.84;;;15.39;78.58
55456;BME280;63021;52.836;6.376;2023-08-07T00:42:10;101052.16;;;15.38;79.03
55456;BME280;63021;52.836;6.376;2023-08-07T00:44:36;101050.50;;;15.37;78.78
55456;BME280;63021;52.836;6.376;2023-08-07T00:47:01;101060.19;;;15.38;78.61
55456;BME280;63021;52.836;6.376;2023-08-07T00:49:27;101057.50;;;15.38;78.82
55456;BME280;63021;52.836;6.376;2023-08-07T00:51:53;101056.69;;;15.38;79.25
55456;BME280;63021;52.836;6.376;2023-08-07T00:54:20;101064.09;;;15.36;78.54
55456;BME280;63021;52.836;6.376;2023-08-07T00:56:46;101061.56;;;15.34;79.25
55456;BME280;63021;52.836;6.376;2023-08-07T00:59:13;101067.78;;;15.35;78.92
55456;BME280;63021;52.836;6.376;2023-08-07T01:01:40;101065.09;;;15.35;79.18
55456;BME280;63021;52.836;6.376;2023-08-07T01:04:05;101060.72;;;15.34;79.11
55456;BME280;63021;52.836;6.376;2023-08-07T01:06:31;101065.44;;;15.32;78.52
55456;BME280;63021;52.836;6.376;2023-08-07T01:08:56;101060.91;;;15.32;78.68
55456;BME280;63021;52.836;6.376;2023-08-07T01:11:39;101059.56;;;15.28;78.81
55456;BME280;63021;52.836;6.376;2023-08-07T01:14:13;101068.47;;;15.29;78.40
55456;BME280;63021;52.836;6.376;2023-08-07T01:16:57;101063.09;;;15.29;78.33
55456;BME280;63021;52.836;6.376;2023-08-07T01:19:34;101075.00;;;15.26;78.34
55456;BME280;63021;52.836;6.376;2023-08-07T01:22:09;101069.81;;;15.24;78.47
55456;BME280;63021;52.836;6.376;2023-08-07T01:24:36;101069.13;;;15.22;78.66
55456;BME280;63021;52.836;6.376;2023-08-07T01:36:02;101070.47;;;15.18;78.26
55456;BME280;63021;52.836;6.376;2023-08-07T01:38:30;101078.53;;;15.18;77.93
55456;BME280;63021;52.836;6.376;2023-08-07T01:40:57;101079.38;;;15.19;77.77
55456;BME280;63021;52.836;6.376;2023-08-07T01:43:23;101079.38;;;15.19;77.55
55456;BME280;63021;52.836;6.376;2023-08-07T01:45:49;101071.88;;;15.14;77.58
55456;BME280;63021;52.836;6.376;2023-08-07T01:48:14;101077.22;;;15.14;77.92
55456;BME280;63021;52.836;6.376;2023-08-07T01:50:40;101081.56;;;15.15;77.84
55456;BME280;63021;52.836;6.376;2023-08-07T01:53:06;101072.88;;;15.13;77.56
55456;BME280;63021;52.836;6.376;2023-08-07T01:55:31;101079.06;;;15.14;77.55
55456;BME280;63021;52.836;6.376;2023-08-07T01:57:57;101076.38;;;15.14;77.63
55456;BME280;63021;52.836;6.376;2023-08-07T02:00:22;101076.88;;;15.09;77.16
55456;BME280;63021;52.836;6.376;2023-08-07T02:02:48;101073.56;;;15.07;77.61
55456;BME280;63021;52.836;6.376;2023-08-07T02:05:14;101073.69;;;15.05;77.62
55456;BME280;63021;52.836;6.376;2023-08-07T02:07:40;101070.38;;;15.03;77.85
55456;BME280;63021;52.836;6.376;2023-08-07T02:10:06;101077.59;;;15.03;77.48
55456;BME280;63021;52.836;6.376;2023-08-07T02:12:32;101076.06;;;15.00;77.71
55456;BME280;63021;52.836;6.376;2023-08-07T02:14:58;101067.53;;;14.97;77.50
55456;BME280;63021;52.836;6.376;2023-08-07T02:17:25;101072.06;;;14.96;78.08
55456;BME280;63021;52.836;6.376;2023-08-07T02:19:51;101067.03;;;14.93;77.69
55456;BME280;63021;52.836;6.376;2023-08-07T02:22:16;101078.59;;;14.94;77.38
55456;BME280;63021;52.836;6.376;2023-08-07T02:24:41;101074.22;;;14.93;78.00
55456;BME280;63021;52.836;6.376;2023-08-07T02:27:07;101081.63;;;14.90;77.58
55456;BME280;63021;52.836;6.376;2023-08-07T02:29:32;101077.41;;;14.88;77.82
55456;BME280;63021;52.836;6.376;2023-08-07T02:32:03;101080.28;;;14.86;77.93
55456;BME280;63021;52.836;6.376;2023-08-07T02:34:29;101071.06;;;14.81;78.07
55456;BME280;63021;52.836;6.376;2023-08-07T02:36:55;101083.81;;;14.79;77.69
55456;BME280;63021;52.836;6.376;2023-08-07T02:39:20;101068.06;;;14.76;78.50
55456;BME280;63021;52.836;6.376;2023-08-07T02:41:46;101076.44;;;14.72;78.37
55456;BME280;63021;52.836;6.376;2023-08-07T02:44:11;101076.59;;;14.71;78.50
55456;BME280;63021;52.836;6.376;2023-08-07T02:46:37;101080.31;;;14.70;78.51
55456;BME280;63021;52.836;6.376;2023-08-07T02:49:02;101067.91;;;14.69;78.86
55456;BME280;63021;52.836;6.376;2023-08-07T02:51:28;101076.75;;;14.69;78.82
55456;BME280;63021;52.836;6.376;2023-08-07T02:53:53;101079.44;;;14.69;79.03
55456;BME280;63021;52.836;6.376;2023-08-07T02:56:19;101084.97;;;14.68;78.81
55456;BME280;63021;52.836;6.376;2023-08-07T02:58:44;101081.63;;;14.66;79.00
55456;BME280;63021;52.836;6.376;2023-08-07T03:01:10;101085.16;;;14.66;78.84
55456;BME280;63021;52.836;6.376;2023-08-07T03:03:37;101087.66;;;14.68;79.16
55456;BME280;63021;52.836;6.376;2023-08-07T03:06:03;101093.00;;;14.68;79.13
55456;BME280;63021;52.836;6.376;2023-08-07T03:08:29;101080.47;;;14.68;78.86
55456;BME280;63021;52.836;6.376;2023-08-07T03:10:56;101082.13;;;14.69;79.56
55456;BME280;63021;52.836;6.376;2023-08-07T03:13:23;101072.44;;;14.68;78.96
55456;BME280;63021;52.836;6.376;2023-08-07T03:15:48;101075.28;;;14.67;79.03
55456;BME280;63021;52.836;6.376;2023-08-07T03:18:18;101075.44;;;14.65;79.05
55456;BME280;63021;52.836;6.376;2023-08-07T03:20:44;101074.59;;;14.65;79.20
55456;BME280;63021;52.836;6.376;2023-08-07T03:23:10;101073.09;;;14.62;79.42
55456;BME280;63021;52.836;6.376;2023-08-07T03:25:36;101069.56;;;14.62;79.61
55456;BME280;63021;52.836;6.376;2023-08-07T03:28:02;101072.41;;;14.60;79.43
55456;BME280;63021;52.836;6.376;2023-08-07T03:30:28;101070.72;;;14.59;79.47
55456;BME280;63021;52.836;6.376;2023-08-07T03:32:54;101064.34;;;14.60;79.45
55456;BME280;63021;52.836;6.376;2023-08-07T03:35:19;101066.34;;;14.58;79.39
55456;BME280;63021;52.836;6.376;2023-08-07T03:37:44;101072.72;;;14.57;79.91
55456;BME280;63021;52.836;6.376;2023-08-07T03:40:10;101082.59;;;14.56;80.18
55456;BME280;63021;52.836;6.376;2023-08-07T03:42:35;101091.16;;;14.60;80.28
55456;BME280;63021;52.836;6.376;2023-08-07T03:45:01;101083.13;;;14.60;79.70
55456;BME280;63021;52.836;6.376;2023-08-07T03:47:26;101087.47;;;14.61;80.16
55456;BME280;63021;52.836;6.376;2023-08-07T03:49:52;101088.16;;;14.63;80.13
55456;BME280;63021;52.836;6.376;2023-08-07T03:52:17;101086.31;;;14.64;80.05
55456;BME280;63021;52.836;6.376;2023-08-07T03:54:43;101086.16;;;14.65;80.59
55456;BME280;63021;52.836;6.376;2023-08-07T03:57:09;101080.94;;;14.64;80.67
55456;BME280;63021;52.836;6.376;2023-08-07T03:59:36;101078.44;;;14.62;80.20
55456;BME280;63021;52.836;6.376;2023-08-07T04:02:02;101086.47;;;14.62;80.36
55456;BME280;63021;52.836;6.376;2023-08-07T04:04:27;101089.16;;;14.62;80.31
55456;BME280;63021;52.836;6.376;2023-08-07T04:06:53;101081.25;;;14.61;80.84
55456;BME280;63021;52.836;6.376;2023-08-07T04:09:18;101078.59;;;14.61;80.40
55456;BME280;63021;52.836;6.376;2023-08-07T04:11:43;101080.28;;;14.62;80.48
55456;BME280;63021;52.836;6.376;2023-08-07T04:14:09;101082.28;;;14.60;80.39
55456;BME280;63021;52.836;6.376;2023-08-07T04:16:34;101084.97;;;14.60;80.55
55456;BME280;63021;52.836;6.376;2023-08-07T04:19:00;101083.94;;;14.61;80.95
55456;BME280;63021;52.836;6.376;2023-08-07T04:21:25;101084.97;;;14.60;80.77
55456;BME280;63021;52.836;6.376;2023-08-07T04:23:51;101090.16;;;14.61;81.10
55456;BME280;63021;52.836;6.376;2023-08-07T04:26:16;101097.34;;;14.61;81.47
55456;BME280;63021;52.836;6.376;2023-08-07T04:28:42;101086.47;;;14.62;81.29
55456;BME280;63021;52.836;6.376;2023-08-07T04:31:07;101096.19;;;14.63;81.00
55456;BME280;63021;52.836;6.376;2023-08-07T04:33:33;101106.56;;;14.66;80.87
55456;BME280;63021;52.836;6.376;2023-08-07T04:35:58;101102.06;;;14.67;80.56
55456;BME280;63021;52.836;6.376;2023-08-07T04:38:24;101109.09;;;14.68;81.21
55456;BME280;63021;52.836;6.376;2023-08-07T04:40:50;101111.59;;;14.69;81.06
55456;BME280;63021;52.836;6.376;2023-08-07T04:43:17;101114.97;;;14.71;80.98
55456;BME280;63021;52.836;6.376;2023-08-07T04:45:43;101105.94;;;14.72;81.16
55456;BME280;63021;52.836;6.376;2023-08-07T04:48:10;101107.41;;;14.75;80.92
55456;BME280;63021;52.836;6.376;2023-08-07T04:50:37;101109.91;;;14.77;81.10
55456;BME280;63021;52.836;6.376;2023-08-07T04:53:04;101119.66;;;14.78;81.09
55456;BME280;63021;52.836;6.376;2023-08-07T04:55:30;101122.16;;;14.79;81.03
55456;BME280;63021;52.836;6.376;2023-08-07T04:57:55;101117.78;;;14.78;81.30
55456;BME280;63021;52.836;6.376;2023-08-07T05:00:22;101130.38;;;14.78;80.86
55456;BME280;63021;52.836;6.376;2023-08-07T05:02:47;101126.84;;;14.77;81.41
55456;BME280;63021;52.836;6.376;2023-08-07T05:05:16;101133.03;;;14.78;80.91
55456;BME280;63021;52.836;6.376;2023-08-07T05:07:42;101136.56;;;14.78;81.17
55456;BME280;63021;52.836;6.376;2023-08-07T05:10:08;101137.56;;;14.77;81.49
55456;BME280;63021;52.836;6.376;2023-08-07T05:12:34;101143.09;;;14.76;81.64
55456;BME280;63021;52.836;6.376;2023-08-07T05:15:00;101145.09;;;14.73;81.55
55456;BME280;63021;52.836;6.376;2023-08-07T05:17:25;101154.81;;;14.75;81.51
55456;BME280;63021;52.836;6.376;2023-08-07T05:19:51;101158.34;;;14.75;81.07
55456;BME280;63021;52.836;6.376;2023-08-07T05:22:16;101154.31;;;14.71;81.48
55456;BME280;63021;52.836;6.376;2023-08-07T05:24:42;101153.31;;;14.72;80.96
55456;BME280;63021;52.836;6.376;2023-08-07T05:27:09;101166.53;;;14.73;81.59
55456;BME280;63021;52.836;6.376;2023-08-07T05:29:35;101170.38;;;14.71;81.05
55456;BME280;63021;52.836;6.376;2023-08-07T05:32:08;101154.66;;;14.68;80.82
55456;BME280;63021;52.836;6.376;2023-08-07T05:34:34;101161.84;;;14.67;81.22
55456;BME280;63021;52.836;6.376;2023-08-07T05:36:59;101168.91;;;14.68;81.15
55456;BME280;63021;52.836;6.376;2023-08-07T05:39:24;101167.88;;;14.69;81.05
55456;BME280;63021;52.836;6.376;2023-08-07T05:41:50;101168.03;;;14.68;81.40
55456;BME280;63021;52.836;6.376;2023-08-07T05:44:16;101171.41;;;14.70;81.42
55456;BME280;63021;52.836;6.376;2023-08-07T05:46:44;101165.19;;;14.69;81.60
55456;BME280;63021;52.836;6.376;2023-08-07T05:49:10;101175.09;;;14.69;81.22
55456;BME280;63021;52.836;6.376;2023-08-07T05:51:35;101182.97;;;14.70;81.37
55456;BME280;63021;52.836;6.376;2023-08-07T05:54:01;101178.41;;;14.71;81.32
55456;BME280;63021;52.836;6.376;2023-08-07T05:56:26;101187.97;;;14.73;81.26
55456;BME280;63021;52.836;6.376;2023-08-07T05:58:51;101193.00;;;14.77;81.68
55456;BME280;63021;52.836;6.376;2023-08-07T06:01:17;101194.53;;;14.79;81.47
55456;BME280;63021;52.836;6.376;2023-08-07T06:03:43;101201.41;;;14.82;81.59
55456;BME280;63021;52.836;6.376;2023-08-07T06:06:08;101209.94;;;14.85;81.31
55456;BME280;63021;52.836;6.376;2023-08-07T06:08:33;101195.53;;;14.86;82.07
55456;BME280;63021;52.836;6.376;2023-08-07T06:10:59;101202.88;;;14.93;81.71
55456;BME280;63021;52.836;6.376;2023-08-07T06:13:28;101218.50;;;14.97;81.48
55456;BME280;63021;52.836;6.376;2023-08-07T06:15:54;101223.19;;;15.03;81.90
55456;BME280;63021;52.836;6.376;2023-08-07T06:18:19;101227.88;;;15.10;81.30
55456;BME280;63021;52.836;6.376;2023-08-07T06:20:45;101220.34;;;15.13;81.09
55456;BME280;63021;52.836;6.376;2023-08-07T06:23:14;101222.03;;;15.14;81.20
55456;BME280;63021;52.836;6.376;2023-08-07T06:25:39;101229.72;;;15.09;80.57
55456;BME280;63021;52.836;6.376;2023-08-07T06:28:05;101234.44;;;15.07;80.14
55456;BME280;63021;52.836;6.376;2023-08-07T06:30:31;101246.50;;;15.03;80.33
55456;BME280;63021;52.836;6.376;2023-08-07T06:32:56;101249.31;;;14.93;80.05
55456;BME280;63021;52.836;6.376;2023-08-07T06:35:22;101245.94;;;14.91;80.21
55456;BME280;63021;52.836;6.376;2023-08-07T06:37:48;101249.13;;;14.86;79.86
55456;BME280;63021;52.836;6.376;2023-08-07T06:40:13;101246.97;;;14.82;79.77
55456;BME280;63021;52.836;6.376;2023-08-07T06:42:39;101255.00;;;14.82;80.22
55456;BME280;63021;52.836;6.376;2023-08-07T06:45:05;101264.03;;;14.81;80.09
55456;BME280;63021;52.836;6.376;2023-08-07T06:47:31;101271.75;;;14.84;79.92
55456;BME280;63021;52.836;6.376;2023-08-07T06:49:57;101268.06;;;14.85;80.55
55456;BME280;63021;52.836;6.376;2023-08-07T06:52:22;101270.75;;;14.85;80.49
55456;BME280;63021;52.836;6.376;2023-08-07T06:54:48;101269.91;;;14.84;80.29
55456;BME280;63021;52.836;6.376;2023-08-07T06:57:14;101273.25;;;14.86;79.93
55456;BME280;63021;52.836;6.376;2023-08-07T06:59:39;101272.09;;;14.89;80.21
55456;BME280;63021;52.836;6.376;2023-08-07T07:02:05;101273.63;;;14.92;80.56
55456;BME280;63021;52.836;6.376;2023-08-07T07:04:31;101270.78;;;14.93;80.07
55456;BME280;63021;52.836;6.376;2023-08-07T07:06:56;101278.47;;;14.96;80.49
55456;BME280;63021;52.836;6.376;2023-08-07T07:09:22;101281.50;;;15.01;80.43
55456;BME280;63021;52.836;6.376;2023-08-07T07:11:47;101281.66;;;15.08;80.22
55456;BME280;63021;52.836;6.376;2023-08-07T07:14:13;101284.88;;;15.12;80.03
55456;BME280;63021;52.836;6.376;2023-08-07T07:16:38;101283.53;;;15.16;80.11
55456;BME280;63021;52.836;6.376;2023-08-07T07:19:04;101280.53;;;15.19;80.10
55456;BME280;63021;52.836;6.376;2023-08-07T07:21:29;101279.19;;;15.23;79.80
55456;BME280;63021;52.836;6.376;2023-08-07T07:23:55;101284.22;;;15.26;78.96
55456;BME280;63021;52.836;6.376;2023-08-07T07:26:20;101285.72;;;15.29;79.40
55456;BME280;63021;52.836;6.376;2023-08-07T07:28:45;101280.84;;;15.32;79.43
55456;BME280;63021;52.836;6.376;2023-08-07T07:31:11;101288.22;;;15.38;78.42
55456;BME280;63021;52.836;6.376;2023-08-07T07:33:37;101283.38;;;15.42;78.53
55456;BME280;63021;52.836;6.376;2023-08-07T07:36:05;101281.16;;;15.46;78.21
55456;BME280;63021;52.836;6.376;2023-08-07T07:38:31;101288.91;;;15.49;78.25
55456;BME280;63021;52.836;6.376;2023-08-07T07:40:57;101292.44;;;15.49;77.61
55456;BME280;63021;52.836;6.376;2023-08-07T07:43:23;101295.94;;;15.50;77.19
55456;BME280;63021;52.836;6.376;2023-08-07T07:45:49;101324.78;;;15.48;76.63
55456;BME280;63021;52.836;6.376;2023-08-07T07:48:14;101330.84;;;15.41;76.03
55456;BME280;63021;52.836;6.376;2023-08-07T07:50:40;101324.59;;;15.33;75.47
55456;BME280;63021;52.836;6.376;2023-08-07T07:53:06;101321.25;;;15.22;75.09
55456;BME280;63021;52.836;6.376;2023-08-07T07:55:31;101328.97;;;15.17;75.21
55456;BME280;63021;52.836;6.376;2023-08-07T07:57:59;101338.50;;;15.12;75.46
55456;BME280;63021;52.836;6.376;2023-08-07T08:00:24;101332.44;;;15.10;75.35
55456;BME280;63021;52.836;6.376;2023-08-07T08:02:53;101340.00;;;15.06;75.55
55456;BME280;63021;52.836;6.376;2023-08-07T08:05:19;101338.16;;;15.06;76.06
55456;BME280;63021;52.836;6.376;2023-08-07T08:07:44;101335.81;;;15.03;75.73
55456;BME280;63021;52.836;6.376;2023-08-07T08:10:10;101334.63;;;15.06;75.24
55456;BME280;63021;52.836;6.376;2023-08-07T08:12:36;101336.16;;;15.09;75.22
55456;BME280;63021;52.836;6.376;2023-08-07T08:15:02;101341.53;;;15.09;75.74
55456;BME280;63021;52.836;6.376;2023-08-07T08:17:28;101339.50;;;15.11;75.71
55456;BME280;63021;52.836;6.376;2023-08-07T08:19:54;101337.19;;;15.16;75.89
55456;BME280;63021;52.836;6.376;2023-08-07T08:22:19;101335.81;;;15.20;75.64
55456;BME280;63021;52.836;6.376;2023-08-07T08:24:45;101328.47;;;15.30;76.41
55456;BME280;63021;52.836;6.376;2023-08-07T08:27:10;101336.84;;;15.44;76.22
55456;BME280;63021;52.836;6.376;2023-08-07T08:29:36;101354.63;;;15.53;75.88
55456;BME280;63021;52.836;6.376;2023-08-07T08:32:01;101349.25;;;15.53;74.43
55456;BME280;63021;52.836;6.376;2023-08-07T08:34:27;101370.22;;;15.49;73.46
55456;BME280;63021;52.836;6.376;2023-08-07T08:36:52;101373.44;;;15.45;72.93
55456;BME280;63021;52.836;6.376;2023-08-07T08:39:18;101373.91;;;15.40;72.37
55456;BME280;63021;52.836;6.376;2023-08-07T08:41:46;101382.81;;;15.40;72.39
55456;BME280;63021;52.836;6.376;2023-08-07T08:44:13;101373.59;;;15.43;72.28
55456;BME280;63021;52.836;6.376;2023-08-07T08:46:42;101374.25;;;15.45;71.53
55456;BME280;63021;52.836;6.376;2023-08-07T08:49:08;101374.09;;;15.47;72.12
55456;BME280;63021;52.836;6.376;2023-08-07T08:51:36;101380.13;;;15.49;72.15
55456;BME280;63021;52.836;6.376;2023-08-07T08:54:03;101392.53;;;15.50;71.46
55456;BME280;63021;52.836;6.376;2023-08-07T08:56:30;101378.94;;;15.51;71.44
55456;BME280;63021;52.836;6.376;2023-08-07T08:58:56;101384.47;;;15.50;71.04
55456;BME280;63021;52.836;6.376;2023-08-07T09:01:22;101385.81;;;15.54;71.29
55456;BME280;63021;52.836;6.376;2023-08-07T09:03:49;101382.97;;;15.55;71.12
55456;BME280;63021;52.836;6.376;2023-08-07T09:06:14;101382.81;;;15.57;71.37
55456;BME280;63021;52.836;6.376;2023-08-07T09:08:42;101393.38;;;15.58;70.95
55456;BME280;63021;52.836;6.376;2023-08-07T09:11:08;101382.81;;;15.57;71.25
55456;BME280;63021;52.836;6.376;2023-08-07T09:13:36;101390.38;;;15.62;71.12
55456;BME280;63021;52.836;6.376;2023-08-07T09:16:02;101398.25;;;15.63;71.81
55456;BME280;63021;52.836;6.376;2023-08-07T09:18:28;101384.50;;;15.66;71.86
55456;BME280;63021;52.836;6.376;2023-08-07T09:20:53;101404.31;;;15.73;71.24
55456;BME280;63021;52.836;6.376;2023-08-07T09:23:19;101392.09;;;15.79;71.01
55456;BME280;63021;52.836;6.376;2023-08-07T09:25:45;101398.94;;;15.90;70.63
55456;BME280;63021;52.836;6.376;2023-08-07T09:28:10;101397.97;;;15.99;69.41
55456;BME280;63021;52.836;6.376;2023-08-07T09:30:37;101395.94;;;16.09;69.62
55456;BME280;63021;52.836;6.376;2023-08-07T09:33:03;101406.66;;;16.18;68.96
55456;BME280;63021;52.836;6.376;2023-08-07T09:35:30;101387.16;;;16.24;67.60
55456;BME280;63021;52.836;6.376;2023-08-07T09:37:59;101400.91;;;16.29;65.77
55456;BME280;63021;52.836;6.376;2023-08-07T09:40:25;101405.28;;;16.30;64.33
55456;BME280;63021;52.836;6.376;2023-08-07T09:42:51;101412.00;;;16.26;63.55
55456;BME280;63021;52.836;6.376;2023-08-07T09:45:27;101408.66;;;16.24;62.91
55456;BME280;63021;52.836;6.376;2023-08-07T09:48:06;101414.38;;;16.21;62.75
55456;BME280;63021;52.836;6.376;2023-08-07T09:50:32;101412.69;;;16.20;62.71
55456;BME280;63021;52.836;6.376;2023-08-07T09:52:58;101407.97;;;16.22;63.44
55456;BME280;63021;52.836;6.376;2023-08-07T09:55:24;101413.84;;;16.25;63.02
55456;BME280;63021;52.836;6.376;2023-08-07T09:57:50;101407.13;;;16.30;62.97
55456;BME280;63021;52.836;6.376;2023-08-07T10:00:17;101412.81;;;16.35;63.54
55456;BME280;63021;52.836;6.376;2023-08-07T10:02:46;101405.59;;;16.43;63.69
55456;BME280;63021;52.836;6.376;2023-08-07T10:05:11;101416.13;;;16.53;63.20
55456;BME280;63021;52.836;6.376;2023-08-07T10:07:38;101414.25;;;16.62;62.52
55456;BME280;63021;52.836;6.376;2023-08-07T10:10:04;101417.63;;;16.72;62.55
55456;BME280;63021;52.836;6.376;2023-08-07T10:12:31;101403.13;;;16.82;61.29
55456;BME280;63021;52.836;6.376;2023-08-07T10:14:58;101427.50;;;16.80;59.59
55456;BME280;63021;52.836;6.376;2023-08-07T10:17:24;101420.97;;;16.74;58.82
55456;BME280;63021;52.836;6.376;2023-08-07T10:19:51;101425.84;;;16.71;58.58
55456;BME280;63021;52.836;6.376;2023-08-07T10:22:19;101412.88;;;16.74;58.58
55456;BME280;63021;52.836;6.376;2023-08-07T10:24:47;101417.38;;;16.82;58.42
55456;BME280;63021;52.836;6.376;2023-08-07T10:27:18;101431.50;;;16.84;58.21
55456;BME280;63021;52.836;6.376;2023-08-07T10:29:46;101445.31;;;16.81;57.85
55456;BME280;63021;52.836;6.376;2023-08-07T10:32:13;101447.31;;;16.79;56.92
55456;BME280;63021;52.836;6.376;2023-08-07T10:34:43;101443.13;;;16.76;57.27
55456;BME280;63021;52.836;6.376;2023-08-07T10:37:44;101441.63;;;16.74;56.86
55456;BME280;63021;52.836;6.376;2023-08-07T10:40:11;101446.50;;;16.70;57.94
55456;BME280;63021;52.836;6.376;2023-08-07T10:45:18;101445.50;;;16.71;58.48
55456;BME280;63021;52.836;6.376;2023-08-07T10:50:29;101440.41;;;16.85;59.10
55456;BME280;63021;52.836;6.376;2023-08-07T10:52:54;101437.72;;;16.93;58.28
55456;BME280;63021;52.836;6.376;2023-08-07T10:55:20;101427.94;;;17.00;58.64
55456;BME280;63021;52.836;6.376;2023-08-07T10:57:46;101445.88;;;17.08;58.01
55456;BME280;63021;52.836;6.376;2023-08-07T11:00:12;101454.13;;;17.06;57.19
55456;BME280;63021;52.836;6.376;2023-08-07T11:02:42;101446.09;;;16.98;56.66
55456;BME280;63021;52.836;6.376;2023-08-07T11:05:08;101460.56;;;16.97;56.13
55456;BME280;63021;52.836;6.376;2023-08-07T11:07:33;101453.16;;;16.99;56.70
55456;BME280;63021;52.836;6.376;2023-08-07T11:09:59;101460.19;;;17.08;57.45
55456;BME280;63021;52.836;6.376;2023-08-07T11:12:26;101452.38;;;17.22;56.99
55456;BME280;63021;52.836;6.376;2023-08-07T11:14:52;101447.94;;;17.37;55.90
55456;BME280;63021;52.836;6.376;2023-08-07T11:17:27;101462.66;;;17.49;56.09
55456;BME280;63021;52.836;6.376;2023-08-07T11:19:55;101443.28;;;17.54;55.09
55456;BME280;63021;52.836;6.376;2023-08-07T11:22:22;101471.22;;;17.53;54.52
55456;BME280;63021;52.836;6.376;2023-08-07T11:24:47;101464.97;;;17.53;53.44
55456;BME280;63021;52.836;6.376;2023-08-07T11:27:13;101461.66;;;17.51;53.58
55456;BME280;63021;52.836;6.376;2023-08-07T11:29:38;101457.09;;;17.51;54.18
55456;BME280;63021;52.836;6.376;2023-08-07T11:32:04;101453.88;;;17.56;55.00
55456;BME280;63021;52.836;6.376;2023-08-07T11:34:30;101467.63;;;17.61;55.48
55456;BME280;63021;52.836;6.376;2023-08-07T11:36:56;101463.09;;;17.61;55.92
55456;BME280;63021;52.836;6.376;2023-08-07T11:39:23;101471.38;;;17.60;54.84
55456;BME280;63021;52.836;6.376;2023-08-07T11:41:53;101466.13;;;17.58;54.98
55456;BME280;63021;52.836;6.376;2023-08-07T11:44:19;101463.94;;;17.62;54.84
55456;BME280;63021;52.836;6.376;2023-08-07T11:46:44;101466.09;;;17.66;55.28
55456;BME280;63021;52.836;6.376;2023-08-07T11:49:10;101473.31;;;17.66;54.76
55456;BME280;63021;52.836;6.376;2023-08-07T11:51:37;101478.91;;;17.64;54.39
55456;BME280;63021;52.836;6.376;2023-08-07T11:54:03;101474.88;;;17.60;54.66
55456;BME280;63021;52.836;6.376;2023-08-07T11:56:29;101469.31;;;17.62;55.05
55456;BME280;63021;52.836;6.376;2023-08-07T11:58:54;101473.69;;;17.63;54.29
55456;BME280;63021;52.836;6.376;2023-08-07T12:01:23;101476.03;;;17.66;54.86
55456;BME280;63021;52.836;6.376;2023-08-07T12:06:23;101477.16;;;17.72;54.72
55456;BME280;63021;52.836;6.376;2023-08-07T12:08:50;101481.66;;;17.79;55.30
55456;BME280;63021;52.836;6.376;2023-08-07T12:11:18;101471.00;;;17.86;54.70
55456;BME280;63021;52.836;6.376;2023-08-07T12:13:46;101461.41;;;17.92;54.97
55456;BME280;63021;52.836;6.376;2023-08-07T12:16:13;101489.34;;;17.91;54.34
55456;BME280;63021;52.836;6.376;2023-08-07T12:21:14;101488.91;;;17.79;54.81
55456;BME280;63021;52.836;6.376;2023-08-07T12:23:40;101494.00;;;17.65;55.55
55456;BME280;63021;52.836;6.376;2023-08-07T12:26:06;101501.63;;;17.62;55.63
55456;BME280;63021;52.836;6.376;2023-08-07T12:28:33;101500.47;;;17.56;56.13
55456;BME280;63021;52.836;6.376;2023-08-07T12:30:59;101512.59;;;17.52;56.15
55456;BME280;63021;52.836;6.376;2023-08-07T12:33:24;101523.91;;;17.47;56.25
55456;BME280;63021;52.836;6.376;2023-08-07T12:35:50;101521.56;;;17.44;57.22
55456;BME280;63021;52.836;6.376;2023-08-07T12:38:16;101516.38;;;17.43;57.55
55456;BME280;63021;52.836;6.376;2023-08-07T12:40:42;101518.72;;;17.46;57.29
55456;BME280;63021;52.836;6.376;2023-08-07T12:43:08;101514.03;;;17.40;57.54
55456;BME280;63021;52.836;6.376;2023-08-07T12:45:33;101514.91;;;17.32;57.62
55456;BME280;63021;52.836;6.376;2023-08-07T12:48:00;101534.09;;;17.29;58.62
55456;BME280;63021;52.836;6.376;2023-08-07T12:50:26;101537.66;;;17.21;58.90
55456;BME280;63021;52.836;6.376;2023-08-07T12:52:51;101542.25;;;17.04;60.63
55456;BME280;63021;52.836;6.376;2023-08-07T12:55:17;101537.59;;;16.90;61.24
55456;BME280;63021;52.836;6.376;2023-08-07T12:57:43;101535.22;;;16.78;62.42
55456;BME280;63021;52.836;6.376;2023-08-07T13:00:13;101545.63;;;16.73;63.66
55456;BME280;63021;52.836;6.376;2023-08-07T13:02:46;101524.66;;;16.69;64.48
55456;BME280;63021;52.836;6.376;2023-08-07T13:05:13;101522.78;;;16.69;64.49